Time;durP1;ratioP1;P1;durP2;ratioP2;P2;SDS_P1;SDS_P2;PMS_P1;PMS_P2;Temp;Humidity;BMP_temperature;BMP_pressure;BME280_temperature;BME280_humidity;BME280_pressure;Samples;Min_cycle;Max_cycle;Signal;HPM_P1;HPM_P2
2023/11/07 00:00:01;;;;;;;7.10;1.17;;;;;;;;;;10071054;28;20429;-73
2023/11/07 00:04:58;;;;;;;4.53;2.15;;;;;;;;;;10070266;28;20551;-73
2023/11/07 00:09:51;;;;;;;2.10;1.58;;;;;;;;;;10071382;28;20488;-74
2023/11/07 00:14:44;;;;;;;3.22;1.20;;;;;;;;;;10069450;28;20041;-73
2023/11/07 00:19:36;;;;;;;3.85;1.48;;;;;;;;;;10053528;28;20045;-73
2023/11/07 00:24:28;;;;;;;1.42;1.13;;;;;;;;;;10068814;28;20049;-73
2023/11/07 00:29:22;;;;;;;2.65;1.85;;;;;;;;;;10070603;28;20096;-73
2023/11/07 00:34:16;;;;;;;1.67;1.33;;;;;;;;;;10068490;28;20144;-73
2023/11/07 00:39:08;;;;;;;6.22;1.92;;;;;;;;;;10041854;28;20065;-74
2023/11/07 00:44:01;;;;;;;2.95;1.17;;;;;;;;;;10031140;28;20088;-73
2023/11/07 00:48:53;;;;;;;4.15;1.65;;;;;;;;;;10028172;28;20517;-73
2023/11/07 00:53:45;;;;;;;4.15;1.92;;;;;;;;;;9999526;28;20053;-73
2023/11/07 00:58:37;;;;;;;3.45;1.50;;;;;;;;;;10030874;28;20477;-73
2023/11/07 01:03:29;;;;;;;7.53;2.00;;;;;;;;;;10030170;28;20046;-73
2023/11/07 01:08:21;;;;;;;8.95;5.13;;;;;;;;;;10027882;28;20624;-73
2023/11/07 01:13:14;;;;;;;4.25;1.55;;;;;;;;;;10011928;28;20042;-73
2023/11/07 01:18:06;;;;;;;1.85;1.75;;;;;;;;;;10029542;28;20073;-73
2023/11/07 01:22:59;;;;;;;2.22;1.45;;;;;;;;;;10029394;28;20049;-73
2023/11/07 01:27:52;;;;;;;1.40;1.20;;;;;;;;;;10029223;28;20042;-73
2023/11/07 01:32:44;;;;;;;5.32;2.22;;;;;;;;;;10027863;28;20042;-72
2023/11/07 01:37:36;;;;;;;3.30;1.23;;;;;;;;;;10028505;28;20096;-72
2023/11/07 01:42:28;;;;;;;2.72;1.52;;;;;;;;;;10028624;28;20412;-72
2023/11/07 01:47:23;;;;;;;6.63;2.70;;;;;;;;;;10026680;28;20045;-72
2023/11/07 01:52:21;;;;;;;7.60;3.35;;;;;;;;;;10027672;28;20092;-73
2023/11/07 01:57:14;;;;;;;5.15;2.08;;;;;;;;;;10009949;28;20345;-72
2023/11/07 02:02:10;;;;;;;4.65;1.42;;;;;;;;;;10025557;28;20487;-75
2023/11/07 02:07:02;;;;;;;1.30;1.20;;;;;;;;;;10025392;28;20050;-74
2023/11/07 02:11:54;;;;;;;2.90;1.23;;;;;;;;;;10009282;28;20080;-73
2023/11/07 02:16:46;;;;;;;1.65;1.50;;;;;;;;;;10008576;28;20072;-73
2023/11/07 02:21:38;;;;;;;3.33;1.27;;;;;;;;;;10027293;28;20054;-72
2023/11/07 02:26:30;;;;;;;5.07;1.63;;;;;;;;;;10025946;28;20041;-73
2023/11/07 02:31:21;;;;;;;1.63;1.52;;;;;;;;;;10027664;28;20475;-72
2023/11/07 02:36:14;;;;;;;3.22;1.40;;;;;;;;;;10025930;28;20049;-73
2023/11/07 02:41:06;;;;;;;1.70;1.35;;;;;;;;;;10025884;28;20488;-73
2023/11/07 02:45:58;;;;;;;3.92;1.40;;;;;;;;;;10010438;28;20057;-73
2023/11/07 02:50:50;;;;;;;4.65;2.20;;;;;;;;;;10020038;28;20126;-73
2023/11/07 02:55:42;;;;;;;4.90;2.35;;;;;;;;;;10026796;28;20046;-72
2023/11/07 03:00:34;;;;;;;17.38;10.98;;;;;;;;;;10025323;28;20046;-73
2023/11/07 03:05:26;;;;;;;7.53;4.00;;;;;;;;;;10040493;28;20045;-75
2023/11/07 03:10:18;;;;;;;11.50;2.08;;;;;;;;;;10047380;28;20049;-72
2023/11/07 03:15:10;;;;;;;4.63;1.58;;;;;;;;;;10026655;28;20029;-72
2023/11/07 03:20:04;;;;;;;3.60;1.40;;;;;;;;;;10025655;28;20478;-72
2023/11/07 03:24:56;;;;;;;6.07;3.10;;;;;;;;;;10007976;28;20372;-72
2023/11/07 03:29:47;;;;;;;7.43;1.73;;;;;;;;;;10026622;28;20379;-72
2023/11/07 03:34:40;;;;;;;3.85;2.00;;;;;;;;;;10023442;28;20054;-73
2023/11/07 03:39:32;;;;;;;4.43;1.85;;;;;;;;;;10026529;28;20092;-72
2023/11/07 03:44:24;;;;;;;3.17;1.35;;;;;;;;;;10024488;28;20050;-72
2023/11/07 03:49:16;;;;;;;5.28;1.42;;;;;;;;;;10026250;28;20460;-72
2023/11/07 03:54:08;;;;;;;1.65;1.55;;;;;;;;;;10028920;28;20077;-72
2023/11/07 03:59:00;;;;;;;5.88;1.65;;;;;;;;;;10032046;28;20033;-72
2023/11/07 04:03:52;;;;;;;7.07;5.07;;;;;;;;;;10031654;28;20507;-72
2023/11/07 04:08:44;;;;;;;3.83;2.72;;;;;;;;;;10023662;28;20042;-72
2023/11/07 04:13:36;;;;;;;6.22;4.28;;;;;;;;;;10032634;28;20045;-72
2023/11/07 04:18:28;;;;;;;5.45;2.97;;;;;;;;;;10030538;28;20448;-72
2023/11/07 04:23:20;;;;;;;3.05;2.10;;;;;;;;;;10029939;28;20121;-73
2023/11/07 04:28:12;;;;;;;4.10;2.30;;;;;;;;;;10031958;28;20100;-73
2023/11/07 04:33:04;;;;;;;10.32;3.15;;;;;;;;;;10031948;28;20042;-72
2023/11/07 04:37:56;;;;;;;3.78;1.38;;;;;;;;;;10027817;28;20084;-72
2023/11/07 04:42:50;;;;;;;3.20;2.00;;;;;;;;;;10029270;28;20136;-73
2023/11/07 04:47:42;;;;;;;1.70;1.52;;;;;;;;;;10031595;28;20136;-72
2023/11/07 04:52:34;;;;;;;2.90;1.35;;;;;;;;;;10027661;28;20050;-72
2023/11/07 04:57:27;;;;;;;4.47;1.92;;;;;;;;;;10031449;28;20076;-72
2023/11/07 05:02:19;;;;;;;6.20;1.75;;;;;;;;;;10028966;28;20426;-73
2023/11/07 05:07:15;;;;;;;3.65;1.73;;;;;;;;;;10029127;28;20045;-72
2023/11/07 05:12:07;;;;;;;1.65;1.40;;;;;;;;;;10029863;28;20477;-72
2023/11/07 05:17:00;;;;;;;7.75;2.47;;;;;;;;;;10029857;28;20100;-73
2023/11/07 05:21:51;;;;;;;8.68;4.28;;;;;;;;;;10029706;28;20061;-72
2023/11/07 05:26:43;;;;;;;13.18;10.57;;;;;;;;;;10027962;28;20411;-73
2023/11/07 05:31:36;;;;;;;62.92;56.60;;;;;;;;;;10031232;28;20049;-73
2023/11/07 05:36:27;;;;;;;84.60;72.50;;;;;;;;;;10042834;28;20045;-72
2023/11/07 05:41:19;;;;;;;18.67;11.90;;;;;;;;;;10067052;28;20430;-72
2023/11/07 05:46:11;;;;;;;44.22;37.70;;;;;;;;;;10066669;28;20530;-72
2023/11/07 05:51:03;;;;;;;5.15;3.20;;;;;;;;;;10054397;28;20353;-72
2023/11/07 05:55:56;;;;;;;36.33;26.35;;;;;;;;;;10066048;28;20125;-72
2023/11/07 06:00:48;;;;;;;17.35;8.18;;;;;;;;;;10066374;28;20084;-73
2023/11/07 06:05:41;;;;;;;3.60;2.03;;;;;;;;;;10055996;28;20081;-72
2023/11/07 06:10:37;;;;;;;10.02;3.80;;;;;;;;;;10060906;28;20510;-72
2023/11/07 06:15:28;;;;;;;6.68;2.65;;;;;;;;;;10056973;28;20045;-73
2023/11/07 06:20:21;;;;;;;3.65;2.25;;;;;;;;;;10044896;28;20200;-73
2023/11/07 06:25:15;;;;;;;3.92;2.58;;;;;;;;;;10065424;28;20091;-73
2023/11/07 06:30:09;;;;;;;6.03;2.55;;;;;;;;;;10066295;28;20103;-73
2023/11/07 06:35:01;;;;;;;5.28;2.03;;;;;;;;;;10064687;28;20049;-73
2023/11/07 06:39:53;;;;;;;13.55;3.80;;;;;;;;;;10066388;28;20373;-73
2023/11/07 06:44:45;;;;;;;6.57;3.55;;;;;;;;;;10064886;28;20103;-73
2023/11/07 06:49:38;;;;;;;3.83;2.38;;;;;;;;;;10060920;28;20119;-72
2023/11/07 06:54:30;;;;;;;7.95;3.60;;;;;;;;;;10063495;28;20431;-73
2023/11/07 06:59:22;;;;;;;6.18;3.92;;;;;;;;;;10065701;28;20465;-73
2023/11/07 07:04:13;;;;;;;4.38;2.67;;;;;;;;;;10047568;28;20469;-73
2023/11/07 07:09:06;;;;;;;4.47;3.15;;;;;;;;;;10052618;28;20046;-72
2023/11/07 07:13:58;;;;;;;8.15;2.58;;;;;;;;;;10040047;28;20124;-73
2023/11/07 07:18:50;;;;;;;4.32;2.00;;;;;;;;;;10031617;28;20046;-73
2023/11/07 07:23:46;;;;;;;10.98;4.75;;;;;;;;;;10055376;28;20056;-73
2023/11/07 07:28:39;;;;;;;4.90;4.00;;;;;;;;;;10059826;28;20060;-72
2023/11/07 07:33:33;;;;;;;6.93;3.10;;;;;;;;;;10054532;28;20130;-72
2023/11/07 07:38:25;;;;;;;4.93;2.40;;;;;;;;;;10070268;28;20327;-73
2023/11/07 07:43:19;;;;;;;4.28;2.50;;;;;;;;;;10058842;28;20072;-72
2023/11/07 07:48:11;;;;;;;11.02;2.80;;;;;;;;;;10058453;28;20054;-72
2023/11/07 07:53:06;;;;;;;19.30;5.30;;;;;;;;;;10039763;28;20044;-72
2023/11/07 07:58:00;;;;;;;12.73;6.53;;;;;;;;;;10036429;28;20056;-73
2023/11/07 08:02:52;;;;;;;10.27;5.35;;;;;;;;;;10035234;28;20076;-72
2023/11/07 08:07:45;;;;;;;8.93;4.22;;;;;;;;;;10029942;28;20045;-73
2023/11/07 08:12:36;;;;;;;11.23;5.90;;;;;;;;;;10028445;28;20550;-72
2023/11/07 08:17:28;;;;;;;7.80;4.75;;;;;;;;;;10034862;28;20052;-72
2023/11/07 08:22:22;;;;;;;16.02;5.53;;;;;;;;;;10020911;28;20041;-73
2023/11/07 08:27:14;;;;;;;10.82;4.45;;;;;;;;;;10034495;28;20419;-72
2023/11/07 08:32:07;;;;;;;8.63;3.88;;;;;;;;;;10031895;28;20073;-73
2023/11/07 08:37:00;;;;;;;9.77;4.28;;;;;;;;;;10044070;28;20384;-73
2023/11/07 08:42:04;;;;;;;10.60;4.20;;;;;;;;;;10032582;28;20046;-72
2023/11/07 08:46:57;;;;;;;11.52;4.93;;;;;;;;;;10033839;28;20495;-73
2023/11/07 08:51:51;;;;;;;5.82;3.60;;;;;;;;;;10028399;28;20046;-73
2023/11/07 08:56:48;;;;;;;12.05;4.53;;;;;;;;;;10030444;28;20042;-73
2023/11/07 09:01:41;;;;;;;7.82;6.05;;;;;;;;;;10032441;28;20046;-72
2023/11/07 09:06:33;;;;;;;8.63;5.53;;;;;;;;;;10026868;28;20053;-73
2023/11/07 09:11:26;;;;;;;11.20;6.80;;;;;;;;;;10023529;28;20120;-71
2023/11/07 09:16:18;;;;;;;5.28;4.68;;;;;;;;;;10035281;28;20049;-70
2023/11/07 09:21:10;;;;;;;6.45;4.50;;;;;;;;;;10025077;28;20042;-69
2023/11/07 09:26:03;;;;;;;4.90;4.20;;;;;;;;;;10028245;28;20057;-69
2023/11/07 09:30:57;;;;;;;11.63;4.55;;;;;;;;;;10024531;28;20093;-69
2023/11/07 09:35:49;;;;;;;9.15;5.68;;;;;;;;;;10024724;28;20050;-69
2023/11/07 09:40:44;;;;;;;12.93;5.32;;;;;;;;;;10029831;28;20370;-69
2023/11/07 09:45:38;;;;;;;6.97;4.68;;;;;;;;;;10025828;28;20049;-69
2023/11/07 09:50:30;;;;;;;7.97;3.90;;;;;;;;;;10011407;28;20526;-70
2023/11/07 09:55:28;;;;;;;12.35;4.45;;;;;;;;;;10007290;28;20057;-69
2023/11/07 10:00:20;;;;;;;5.07;4.55;;;;;;;;;;10023775;28;20049;-70
2023/11/07 10:05:13;;;;;;;6.63;3.72;;;;;;;;;;10027065;28;20455;-70
2023/11/07 10:10:07;;;;;;;6.90;3.42;;;;;;;;;;10022875;28;20411;-70
2023/11/07 10:15:17;;;;;;;7.18;4.13;;;;;;;;;;10026366;28;20104;-70
2023/11/07 10:20:11;;;;;;;;;;;;;;;;;;10005220;28;20050;-70
2023/11/07 10:25:06;;;;;;;9.05;4.35;;;;;;;;;;10009190;28;20268;-71
2023/11/07 10:29:58;;;;;;;6.03;4.32;;;;;;;;;;10014769;28;20132;-70
2023/11/07 10:35:06;;;;;;;7.53;5.20;;;;;;;;;;10022647;28;20060;-70
2023/11/07 10:39:58;;;;;;;11.82;6.13;;;;;;;;;;10024633;28;20042;-71
2023/11/07 10:45:00;;;;;;;9.80;7.03;;;;;;;;;;10023137;28;20081;-71
2023/11/07 10:49:53;;;;;;;7.70;6.88;;;;;;;;;;10015431;28;20058;-72
2023/11/07 10:54:44;;;;;;;9.02;6.13;;;;;;;;;;10005423;28;20100;-72
2023/11/07 10:59:41;;;;;;;13.02;5.97;;;;;;;;;;9994344;28;20097;-72
2023/11/07 11:04:38;;;;;;;10.80;7.00;;;;;;;;;;10013447;28;20054;-72
2023/11/07 11:09:33;;;;;;;9.82;6.10;;;;;;;;;;10018472;28;20100;-71
2023/11/07 11:14:26;;;;;;;9.77;6.50;;;;;;;;;;10028838;28;20392;-71
2023/11/07 11:19:29;;;;;;;10.43;6.82;;;;;;;;;;10022604;28;20117;-71
2023/11/07 11:24:29;;;;;;;10.77;5.90;;;;;;;;;;10030254;28;20412;-72
2023/11/07 11:29:25;;;;;;;9.48;5.72;;;;;;;;;;10031765;28;20046;-71
2023/11/07 11:34:29;;;;;;;12.93;6.03;;;;;;;;;;10018906;28;20042;-71
2023/11/07 11:39:28;;;;;;;7.40;5.72;;;;;;;;;;10025225;28;20081;-71
2023/11/07 11:44:22;;;;;;;13.02;6.80;;;;;;;;;;10007768;28;20381;-71
2023/11/07 11:49:16;;;;;;;10.30;7.00;;;;;;;;;;10047247;28;20049;-72
2023/11/07 11:54:10;;;;;;;10.73;7.03;;;;;;;;;;10062602;28;20349;-71
2023/11/07 11:59:06;;;;;;;8.02;7.22;;;;;;;;;;10065723;28;20053;-72
2023/11/07 12:03:59;;;;;;;10.02;7.15;;;;;;;;;;10019246;28;20046;-72
2023/11/07 12:08:52;;;;;;;9.15;7.20;;;;;;;;;;10023886;28;20053;-71
2023/11/07 12:13:44;;;;;;;14.27;7.90;;;;;;;;;;10019365;28;20093;-71
2023/11/07 12:18:40;;;;;;;4.15;2.95;;;;;;;;;;10030439;28;20434;-71
2023/11/07 12:23:32;;;;;;;3.88;1.83;;;;;;;;;;10029159;28;20476;-72
2023/11/07 12:28:24;;;;;;;4.13;2.65;;;;;;;;;;10031621;28;20060;-71
2023/11/07 12:33:17;;;;;;;7.45;6.63;;;;;;;;;;10013975;28;20041;-71
2023/11/07 12:38:09;;;;;;;9.50;5.07;;;;;;;;;;10031388;28;20038;-71
2023/11/07 12:43:03;;;;;;;5.57;4.15;;;;;;;;;;10012804;28;20053;-72
2023/11/07 12:48:00;;;;;;;3.90;1.85;;;;;;;;;;10032065;28;20041;-71
2023/11/07 12:52:58;;;;;;;1.05;0.90;;;;;;;;;;10029572;28;20140;-71
2023/11/07 12:57:50;;;;;;;2.40;1.02;;;;;;;;;;10029236;28;20129;-73
2023/11/07 13:02:43;;;;;;;4.18;1.17;;;;;;;;;;10027915;28;20034;-71
2023/11/07 13:07:35;;;;;;;2.63;1.10;;;;;;;;;;10025225;28;20045;-70
2023/11/07 13:12:27;;;;;;;1.98;1.58;;;;;;;;;;10026922;28;20069;-71
2023/11/07 13:17:19;;;;;;;4.60;1.15;;;;;;;;;;10030022;28;20456;-71
2023/11/07 13:22:17;;;;;;;3.17;2.30;;;;;;;;;;10030516;28;20484;-70
2023/11/07 13:27:09;;;;;;;1.40;1.00;;;;;;;;;;10028787;28;20141;-70
2023/11/07 13:32:01;;;;;;;2.92;1.20;;;;;;;;;;10030077;28;20042;-70
2023/11/07 13:36:54;;;;;;;2.13;1.10;;;;;;;;;;10027744;28;20050;-71
2023/11/07 13:41:47;;;;;;;5.93;1.67;;;;;;;;;;10022124;28;20350;-70
2023/11/07 13:46:40;;;;;;;3.60;1.25;;;;;;;;;;10031885;28;20046;-71
2023/11/07 13:51:32;;;;;;;5.50;0.90;;;;;;;;;;10019815;28;20141;-71
2023/11/07 13:56:25;;;;;;;2.10;1.20;;;;;;;;;;10026098;28;20462;-70
2023/11/07 14:01:17;;;;;;;3.05;0.90;;;;;;;;;;10025791;28;20448;-71
2023/11/07 14:06:09;;;;;;;3.58;1.25;;;;;;;;;;10031220;28;20104;-70
2023/11/07 14:11:02;;;;;;;3.97;2.08;;;;;;;;;;10026612;28;20380;-70
2023/11/07 14:15:56;;;;;;;2.15;0.90;;;;;;;;;;10032277;28;20693;-70
2023/11/07 14:20:49;;;;;;;0.82;0.82;;;;;;;;;;10026383;28;20049;-70
2023/11/07 14:25:43;;;;;;;2.08;1.20;;;;;;;;;;10032310;28;20121;-70
2023/11/07 14:30:45;;;;;;;5.25;1.45;;;;;;;;;;10026433;28;20337;-73
2023/11/07 14:35:38;;;;;;;4.60;1.20;;;;;;;;;;10016997;28;20046;-69
2023/11/07 14:40:32;;;;;;;2.28;1.20;;;;;;;;;;10028883;28;20107;-70
2023/11/07 14:45:25;;;;;;;3.53;1.40;;;;;;;;;;10028332;28;20123;-70
2023/11/07 14:50:17;;;;;;;3.90;2.05;;;;;;;;;;10027079;28;20050;-70
2023/11/07 14:55:10;;;;;;;4.28;1.65;;;;;;;;;;10024683;28;20054;-70
2023/11/07 15:00:04;;;;;;;4.72;1.27;;;;;;;;;;10027273;28;20491;-70
2023/11/07 15:04:56;;;;;;;3.15;1.85;;;;;;;;;;10026809;28;20518;-70
2023/11/07 15:09:48;;;;;;;3.67;1.30;;;;;;;;;;10025337;28;20061;-70
2023/11/07 15:14:40;;;;;;;2.85;1.05;;;;;;;;;;10025452;28;20042;-70
2023/11/07 15:19:32;;;;;;;2.08;1.17;;;;;;;;;;10026969;28;20100;-70
2023/11/07 15:24:24;;;;;;;4.22;1.42;;;;;;;;;;10026605;28;20042;-70
2023/11/07 15:29:16;;;;;;;2.97;1.20;;;;;;;;;;10025416;28;20045;-70
2023/11/07 15:34:08;;;;;;;3.65;1.15;;;;;;;;;;10025355;28;20413;-71
2023/11/07 15:39:00;;;;;;;2.50;1.10;;;;;;;;;;10005031;28;20398;-72
2023/11/07 15:43:52;;;;;;;1.38;1.13;;;;;;;;;;10017715;28;20100;-72
2023/11/07 15:48:44;;;;;;;6.43;2.95;;;;;;;;;;10015374;28;20054;-71
2023/11/07 15:53:36;;;;;;;4.43;2.55;;;;;;;;;;10029834;28;20100;-72
2023/11/07 15:58:28;;;;;;;2.78;1.77;;;;;;;;;;10031965;28;20034;-72
2023/11/07 16:03:20;;;;;;;3.28;1.90;;;;;;;;;;10031613;28;20152;-71
2023/11/07 16:08:12;;;;;;;12.48;6.80;;;;;;;;;;10030935;28;20049;-72
2023/11/07 16:13:04;;;;;;;4.25;2.10;;;;;;;;;;10031340;28;20046;-71
2023/11/07 16:17:56;;;;;;;1.52;1.13;;;;;;;;;;10030464;28;20042;-72
2023/11/07 16:22:48;;;;;;;3.15;1.15;;;;;;;;;;10030313;28;20042;-70
2023/11/07 16:27:41;;;;;;;4.95;1.40;;;;;;;;;;10030660;28;20430;-72
2023/11/07 16:32:32;;;;;;;3.83;1.20;;;;;;;;;;10027744;28;20114;-70
2023/11/07 16:37:25;;;;;;;3.00;1.10;;;;;;;;;;10054720;28;20073;-72
2023/11/07 16:42:18;;;;;;;1.55;0.90;;;;;;;;;;10059844;28;20048;-72
2023/11/07 16:47:12;;;;;;;1.98;1.05;;;;;;;;;;10062560;28;20112;-72
2023/11/07 16:52:04;;;;;;;3.35;1.08;;;;;;;;;;10043115;28;20500;-71
2023/11/07 16:56:55;;;;;;;4.13;0.90;;;;;;;;;;10050652;28;20057;-72
2023/11/07 17:01:47;;;;;;;4.93;3.38;;;;;;;;;;10027728;28;20069;-71
2023/11/07 17:06:39;;;;;;;4.90;1.40;;;;;;;;;;10025016;28;20096;-73
2023/11/07 17:11:33;;;;;;;4.25;2.15;;;;;;;;;;10025682;28;20048;-73
2023/11/07 17:16:25;;;;;;;6.35;2.55;;;;;;;;;;10026941;28;20068;-72
2023/11/07 17:21:18;;;;;;;29.85;20.20;;;;;;;;;;10025686;28;20105;-72
2023/11/07 17:26:10;;;;;;;7.40;4.53;;;;;;;;;;10022212;28;20125;-72
2023/11/07 17:31:02;;;;;;;5.35;2.10;;;;;;;;;;10027007;28;20524;-72
2023/11/07 17:35:55;;;;;;;4.07;1.60;;;;;;;;;;10024318;28;20038;-72
2023/11/07 17:40:48;;;;;;;2.33;2.13;;;;;;;;;;10026093;28;20064;-73
2023/11/07 17:45:39;;;;;;;2.85;1.88;;;;;;;;;;10040135;28;20364;-72
2023/11/07 17:50:33;;;;;;;18.63;16.65;;;;;;;;;;10033125;28;20445;-72
2023/11/07 17:55:25;;;;;;;16.45;11.88;;;;;;;;;;10029642;28;21557;-72
2023/11/07 18:00:18;;;;;;;6.63;2.35;;;;;;;;;;10028473;28;20473;-72
2023/11/07 18:05:12;;;;;;;3.17;2.15;;;;;;;;;;10027619;28;20100;-71
2023/11/07 18:10:08;;;;;;;5.97;2.03;;;;;;;;;;10026966;28;20081;-72
2023/11/07 18:15:00;;;;;;;4.07;2.05;;;;;;;;;;10014127;28;20048;-71
2023/11/07 18:19:52;;;;;;;5.68;2.72;;;;;;;;;;10011664;28;20038;-71
2023/11/07 18:24:44;;;;;;;8.45;3.55;;;;;;;;;;10016619;28;20081;-71
2023/11/07 18:29:36;;;;;;;13.15;7.38;;;;;;;;;;10012727;28;20050;-72
2023/11/07 18:34:28;;;;;;;7.43;6.00;;;;;;;;;;10023200;28;20033;-72
2023/11/07 18:39:20;;;;;;;7.40;5.68;;;;;;;;;;10027011;28;20045;-72
2023/11/07 18:44:12;;;;;;;4.20;3.78;;;;;;;;;;10039632;28;20100;-72
2023/11/07 18:49:04;;;;;;;4.80;3.65;;;;;;;;;;10028772;28;20112;-72
2023/11/07 18:53:56;;;;;;;4.28;2.10;;;;;;;;;;10018085;28;20453;-71
2023/11/07 18:58:48;;;;;;;4.03;2.55;;;;;;;;;;10040542;28;20128;-72
2023/11/07 19:03:40;;;;;;;10.05;8.98;;;;;;;;;;10029338;28;20042;-72
2023/11/07 19:08:32;;;;;;;5.88;5.18;;;;;;;;;;10066252;28;20048;-71
2023/11/07 19:13:24;;;;;;;6.65;4.32;;;;;;;;;;10059284;28;20038;-71
2023/11/07 19:18:16;;;;;;;9.50;6.20;;;;;;;;;;10065125;28;20419;-72
2023/11/07 19:23:09;;;;;;;19.52;15.48;;;;;;;;;;10063578;28;20450;-72
2023/11/07 19:28:01;;;;;;;17.52;11.75;;;;;;;;;;10057097;28;20053;-72
2023/11/07 19:32:52;;;;;;;9.52;6.43;;;;;;;;;;10032398;28;20077;-72
2023/11/07 19:37:47;;;;;;;10.00;6.00;;;;;;;;;;10028357;28;20461;-71
2023/11/07 19:42:44;;;;;;;7.80;5.28;;;;;;;;;;10035796;28;20034;-72
2023/11/07 19:47:37;;;;;;;9.65;7.28;;;;;;;;;;10054877;28;20048;-72
2023/11/07 19:52:28;;;;;;;11.43;6.63;;;;;;;;;;10050058;28;20111;-72
2023/11/07 19:57:20;;;;;;;7.50;4.25;;;;;;;;;;10056845;28;20048;-72
2023/11/07 20:02:13;;;;;;;9.20;5.47;;;;;;;;;;10043530;28;20037;-72
2023/11/07 20:07:05;;;;;;;10.18;6.47;;;;;;;;;;10033214;28;20054;-72
2023/11/07 20:11:59;;;;;;;7.15;5.47;;;;;;;;;;10046157;28;20476;-72
2023/11/07 20:16:54;;;;;;;8.85;4.10;;;;;;;;;;10035963;28;20425;-72
2023/11/07 20:21:47;;;;;;;3.95;3.53;;;;;;;;;;10034943;28;20085;-72
2023/11/07 20:26:38;;;;;;;3.78;2.88;;;;;;;;;;10036110;28;20461;-72
2023/11/07 20:31:31;;;;;;;3.72;3.05;;;;;;;;;;10058609;28;20388;-72
2023/11/07 20:36:23;;;;;;;6.65;4.20;;;;;;;;;;10052371;28;20377;-72
2023/11/07 20:41:16;;;;;;;5.90;3.75;;;;;;;;;;10046689;28;20080;-72
2023/11/07 20:46:07;;;;;;;7.85;4.47;;;;;;;;;;10059491;28;20103;-72
2023/11/07 20:51:17;;;;;;;;;;;;;;;;;;10048873;28;20050;-72
2023/11/07 20:56:09;;;;;;;5.95;4.65;;;;;;;;;;10046577;28;19922;-72
2023/11/07 21:01:01;;;;;;;12.80;5.47;;;;;;;;;;10064921;28;20465;-72
2023/11/07 21:05:54;;;;;;;11.68;7.28;;;;;;;;;;10064595;28;20038;-72
2023/11/07 21:10:46;;;;;;;8.45;5.72;;;;;;;;;;10065930;28;20076;-71
2023/11/07 21:15:39;;;;;;;11.35;6.43;;;;;;;;;;10068004;28;20482;-72
2023/11/07 21:20:31;;;;;;;11.15;6.57;;;;;;;;;;10068404;28;20050;-72
2023/11/07 21:25:23;;;;;;;14.00;8.73;;;;;;;;;;10034510;28;20042;-72
2023/11/07 21:30:15;;;;;;;12.40;7.88;;;;;;;;;;10029359;28;20054;-72
2023/11/07 21:35:13;;;;;;;15.43;7.15;;;;;;;;;;10031098;28;20046;-72
2023/11/07 21:40:08;;;;;;;10.88;7.25;;;;;;;;;;10048631;28;20057;-72
2023/11/07 21:45:00;;;;;;;18.13;7.40;;;;;;;;;;10058847;28;20069;-72
2023/11/07 21:49:52;;;;;;;9.75;6.75;;;;;;;;;;10029556;28;20050;-72
2023/11/07 21:54:44;;;;;;;12.10;8.07;;;;;;;;;;10056208;28;20049;-72
2023/11/07 21:59:36;;;;;;;12.20;5.65;;;;;;;;;;10053905;28;20041;-72
2023/11/07 22:04:27;;;;;;;14.75;6.30;;;;;;;;;;10067040;28;20037;-72
2023/11/07 22:09:20;;;;;;;12.23;6.50;;;;;;;;;;10066079;28;20049;-72
2023/11/07 22:14:14;;;;;;;11.45;7.88;;;;;;;;;;10066301;28;20045;-72
2023/11/07 22:19:06;;;;;;;18.80;8.80;;;;;;;;;;10036967;28;20530;-72
2023/11/07 22:23:58;;;;;;;14.85;11.07;;;;;;;;;;10032591;28;20453;-72
2023/11/07 22:28:50;;;;;;;17.60;11.48;;;;;;;;;;10060130;28;20042;-71
2023/11/07 22:33:42;;;;;;;15.52;10.82;;;;;;;;;;10061107;28;20057;-72
2023/11/07 22:38:35;;;;;;;11.55;9.23;;;;;;;;;;10061288;28;20038;-71
2023/11/07 22:43:26;;;;;;;11.00;9.20;;;;;;;;;;10062501;28;20061;-72
2023/11/07 22:48:18;;;;;;;12.68;8.32;;;;;;;;;;10064641;28;20057;-72
2023/11/07 22:53:13;;;;;;;7.60;5.32;;;;;;;;;;10045761;28;20130;-72
2023/11/07 22:58:07;;;;;;;8.73;6.28;;;;;;;;;;10045706;28;20045;-72
2023/11/07 23:02:59;;;;;;;7.40;6.43;;;;;;;;;;10052687;28;20041;-72
2023/11/07 23:07:51;;;;;;;11.85;4.43;;;;;;;;;;10041292;28;20128;-71
2023/11/07 23:12:44;;;;;;;9.68;2.95;;;;;;;;;;10053689;28;20057;-72
2023/11/07 23:17:36;;;;;;;5.32;3.58;;;;;;;;;;10053891;28;20140;-71
2023/11/07 23:22:28;;;;;;;5.10;3.65;;;;;;;;;;10061542;28;20075;-71
2023/11/07 23:27:20;;;;;;;6.07;4.20;;;;;;;;;;10061543;28;20141;-72
2023/11/07 23:32:12;;;;;;;5.55;3.55;;;;;;;;;;10064776;28;20175;-72
2023/11/07 23:37:04;;;;;;;3.97;3.47;;;;;;;;;;10055900;28;20069;-72
2023/11/07 23:41:55;;;;;;;8.73;2.88;;;;;;;;;;10066268;28;20053;-71
2023/11/07 23:46:47;;;;;;;5.15;3.17;;;;;;;;;;10072007;28;20068;-70
2023/11/07 23:51:39;;;;;;;7.85;3.55;;;;;;;;;;10071719;28;20477;-72
2023/11/07 23:56:32;;;;;;;13.93;4.90;;;;;;;;;;10071620;28;20072;-72
